sensor_id;sensor_type;location;lat;lon;timestamp;P1;durP1;ratioP1;P2;durP2;ratioP2
59770;SDS011;45649;53.014;6.600;2022-07-23T00:00:36;3.90;;;2.10;;
59770;SDS011;45649;53.014;6.600;2022-07-23T00:03:02;3.13;;;1.90;;
59770;SDS011;45649;53.014;6.600;2022-07-23T00:05:27;3.00;;;1.97;;
59770;SDS011;45649;53.014;6.600;2022-07-23T00:07:54;3.33;;;2.37;;
59770;SDS011;45649;53.014;6.600;2022-07-23T00:10:20;2.83;;;2.07;;
59770;SDS011;45649;53.014;6.600;2022-07-23T00:12:46;4.63;;;2.00;;
59770;SDS011;45649;53.014;6.600;2022-07-23T00:15:11;3.00;;;2.20;;
59770;SDS011;45649;53.014;6.600;2022-07-23T00:17:37;4.93;;;2.50;;
59770;SDS011;45649;53.014;6.600;2022-07-23T00:20:04;2.87;;;2.20;;
59770;SDS011;45649;53.014;6.600;2022-07-23T00:22:30;2.70;;;2.30;;
59770;SDS011;45649;53.014;6.600;2022-07-23T00:24:57;4.00;;;2.43;;
59770;SDS011;45649;53.014;6.600;2022-07-23T00:27:23;3.67;;;2.60;;
59770;SDS011;45649;53.014;6.600;2022-07-23T00:29:49;5.33;;;2.77;;
59770;SDS011;45649;53.014;6.600;2022-07-23T00:32:15;3.20;;;2.90;;
59770;SDS011;45649;53.014;6.600;2022-07-23T00:34:41;4.70;;;2.70;;
59770;SDS011;45649;53.014;6.600;2022-07-23T00:37:08;2.97;;;2.70;;
59770;SDS011;45649;53.014;6.600;2022-07-23T00:39:34;3.23;;;2.53;;
59770;SDS011;45649;53.014;6.600;2022-07-23T00:42:00;2.53;;;2.33;;
59770;SDS011;45649;53.014;6.600;2022-07-23T00:44:27;2.83;;;2.30;;
59770;SDS011;45649;53.014;6.600;2022-07-23T00:46:54;2.40;;;2.20;;
59770;SDS011;45649;53.014;6.600;2022-07-23T00:49:21;2.60;;;2.40;;
59770;SDS011;45649;53.014;6.600;2022-07-23T00:51:48;2.40;;;2.20;;
59770;SDS011;45649;53.014;6.600;2022-07-23T00:54:15;2.83;;;2.60;;
59770;SDS011;45649;53.014;6.600;2022-07-23T00:56:45;5.37;;;2.80;;
59770;SDS011;45649;53.014;6.600;2022-07-23T00:59:12;4.33;;;2.63;;
59770;SDS011;45649;53.014;6.600;2022-07-23T01:01:38;3.73;;;2.60;;
59770;SDS011;45649;53.014;6.600;2022-07-23T01:04:05;4.40;;;2.53;;
59770;SDS011;45649;53.014;6.600;2022-07-23T01:06:34;3.27;;;3.00;;
59770;SDS011;45649;53.014;6.600;2022-07-23T01:09:02;2.53;;;2.43;;
59770;SDS011;45649;53.014;6.600;2022-07-23T01:11:29;4.17;;;2.50;;
59770;SDS011;45649;53.014;6.600;2022-07-23T01:13:56;2.60;;;2.40;;
59770;SDS011;45649;53.014;6.600;2022-07-23T01:16:22;2.93;;;2.60;;
59770;SDS011;45649;53.014;6.600;2022-07-23T01:18:47;4.30;;;2.60;;
59770;SDS011;45649;53.014;6.600;2022-07-23T01:21:13;3.63;;;2.77;;
59770;SDS011;45649;53.014;6.600;2022-07-23T01:23:42;3.83;;;2.30;;
59770;SDS011;45649;53.014;6.600;2022-07-23T01:26:08;2.70;;;2.50;;
59770;SDS011;45649;53.014;6.600;2022-07-23T01:28:34;2.70;;;2.50;;
59770;SDS011;45649;53.014;6.600;2022-07-23T01:31:00;3.27;;;2.50;;
59770;SDS011;45649;53.014;6.600;2022-07-23T01:33:26;3.77;;;2.70;;
59770;SDS011;45649;53.014;6.600;2022-07-23T01:35:52;2.83;;;2.57;;
59770;SDS011;45649;53.014;6.600;2022-07-23T01:38:17;3.80;;;2.80;;
59770;SDS011;45649;53.014;6.600;2022-07-23T01:40:44;2.83;;;2.63;;
59770;SDS011;45649;53.014;6.600;2022-07-23T01:43:10;4.13;;;2.60;;
59770;SDS011;45649;53.014;6.600;2022-07-23T01:45:36;3.30;;;2.90;;
59770;SDS011;45649;53.014;6.600;2022-07-23T01:48:02;3.27;;;3.00;;
59770;SDS011;45649;53.014;6.600;2022-07-23T01:50:30;2.90;;;2.70;;
59770;SDS011;45649;53.014;6.600;2022-07-23T01:52:56;5.63;;;2.90;;
59770;SDS011;45649;53.014;6.600;2022-07-23T01:55:22;2.80;;;2.60;;
59770;SDS011;45649;53.014;6.600;2022-07-23T01:57:48;3.37;;;3.07;;
59770;SDS011;45649;53.014;6.600;2022-07-23T02:00:14;4.87;;;3.20;;
59770;SDS011;45649;53.014;6.600;2022-07-23T02:05:14;3.20;;;3.00;;
59770;SDS011;45649;53.014;6.600;2022-07-23T02:07:39;4.47;;;3.10;;
59770;SDS011;45649;53.014;6.600;2022-07-23T02:10:07;2.50;;;2.40;;
59770;SDS011;45649;53.014;6.600;2022-07-23T02:12:34;3.33;;;2.40;;
59770;SDS011;45649;53.014;6.600;2022-07-23T02:15:00;2.87;;;2.47;;
59770;SDS011;45649;53.014;6.600;2022-07-23T02:17:26;3.70;;;3.00;;
59770;SDS011;45649;53.014;6.600;2022-07-23T02:19:52;5.13;;;3.40;;
59770;SDS011;45649;53.014;6.600;2022-07-23T02:22:18;5.57;;;3.87;;
59770;SDS011;45649;53.014;6.600;2022-07-23T02:24:44;4.00;;;3.70;;
59770;SDS011;45649;53.014;6.600;2022-07-23T02:27:10;3.90;;;3.50;;
59770;SDS011;45649;53.014;6.600;2022-07-23T02:29:36;4.33;;;3.90;;
59770;SDS011;45649;53.014;6.600;2022-07-23T02:32:03;5.30;;;3.63;;
59770;SDS011;45649;53.014;6.600;2022-07-23T02:34:30;4.40;;;3.27;;
59770;SDS011;45649;53.014;6.600;2022-07-23T02:36:55;4.20;;;3.30;;
59770;SDS011;45649;53.014;6.600;2022-07-23T02:39:21;3.53;;;3.23;;
59770;SDS011;45649;53.014;6.600;2022-07-23T02:41:47;4.30;;;3.50;;
59770;SDS011;45649;53.014;6.600;2022-07-23T02:44:13;3.70;;;3.40;;
59770;SDS011;45649;53.014;6.600;2022-07-23T02:46:40;4.53;;;3.80;;
59770;SDS011;45649;53.014;6.600;2022-07-23T02:49:05;3.80;;;3.50;;
59770;SDS011;45649;53.014;6.600;2022-07-23T02:51:31;3.73;;;3.43;;
59770;SDS011;45649;53.014;6.600;2022-07-23T02:53:57;3.73;;;3.20;;
59770;SDS011;45649;53.014;6.600;2022-07-23T02:56:23;3.43;;;3.23;;
59770;SDS011;45649;53.014;6.600;2022-07-23T02:58:49;3.30;;;3.10;;
59770;SDS011;45649;53.014;6.600;2022-07-23T03:01:15;4.17;;;3.60;;
59770;SDS011;45649;53.014;6.600;2022-07-23T03:03:41;3.40;;;3.10;;
59770;SDS011;45649;53.014;6.600;2022-07-23T03:06:07;4.23;;;3.70;;
59770;SDS011;45649;53.014;6.600;2022-07-23T03:08:33;3.40;;;3.10;;
59770;SDS011;45649;53.014;6.600;2022-07-23T03:10:59;3.30;;;3.10;;
59770;SDS011;45649;53.014;6.600;2022-07-23T03:13:24;3.20;;;2.90;;
59770;SDS011;45649;53.014;6.600;2022-07-23T03:15:51;4.07;;;3.67;;
59770;SDS011;45649;53.014;6.600;2022-07-23T03:18:17;3.90;;;3.50;;
59770;SDS011;45649;53.014;6.600;2022-07-23T03:20:42;4.93;;;4.10;;
59770;SDS011;45649;53.014;6.600;2022-07-23T03:23:08;3.50;;;3.20;;
59770;SDS011;45649;53.014;6.600;2022-07-23T03:25:34;3.50;;;3.20;;
59770;SDS011;45649;53.014;6.600;2022-07-23T03:28:01;3.37;;;3.13;;
59770;SDS011;45649;53.014;6.600;2022-07-23T03:30:27;3.63;;;2.77;;
59770;SDS011;45649;53.014;6.600;2022-07-23T03:32:52;2.70;;;2.33;;
59770;SDS011;45649;53.014;6.600;2022-07-23T03:35:18;3.03;;;2.70;;
59770;SDS011;45649;53.014;6.600;2022-07-23T03:37:44;3.10;;;2.90;;
59770;SDS011;45649;53.014;6.600;2022-07-23T03:40:11;3.70;;;2.70;;
59770;SDS011;45649;53.014;6.600;2022-07-23T03:42:37;4.03;;;3.03;;
59770;SDS011;45649;53.014;6.600;2022-07-23T03:45:04;4.33;;;4.03;;
59770;SDS011;45649;53.014;6.600;2022-07-23T03:47:31;5.07;;;4.57;;
59770;SDS011;45649;53.014;6.600;2022-07-23T03:49:57;6.47;;;4.67;;
59770;SDS011;45649;53.014;6.600;2022-07-23T03:52:23;5.07;;;4.67;;
59770;SDS011;45649;53.014;6.600;2022-07-23T03:54:49;5.70;;;5.20;;
59770;SDS011;45649;53.014;6.600;2022-07-23T03:57:15;5.30;;;4.90;;
59770;SDS011;45649;53.014;6.600;2022-07-23T03:59:42;6.43;;;5.10;;
59770;SDS011;45649;53.014;6.600;2022-07-23T04:02:08;6.67;;;5.97;;
59770;SDS011;45649;53.014;6.600;2022-07-23T04:04:33;6.83;;;5.77;;
59770;SDS011;45649;53.014;6.600;2022-07-23T04:06:59;6.37;;;5.47;;
59770;SDS011;45649;53.014;6.600;2022-07-23T04:09:26;6.33;;;5.73;;
59770;SDS011;45649;53.014;6.600;2022-07-23T04:11:52;6.33;;;5.33;;
59770;SDS011;45649;53.014;6.600;2022-07-23T04:14:19;7.57;;;5.20;;
59770;SDS011;45649;53.014;6.600;2022-07-23T04:16:45;6.17;;;5.70;;
59770;SDS011;45649;53.014;6.600;2022-07-23T04:19:11;7.13;;;6.23;;
59770;SDS011;45649;53.014;6.600;2022-07-23T04:21:38;6.73;;;5.50;;
59770;SDS011;45649;53.014;6.600;2022-07-23T04:24:04;5.97;;;5.47;;
59770;SDS011;45649;53.014;6.600;2022-07-23T04:26:30;5.53;;;5.10;;
59770;SDS011;45649;53.014;6.600;2022-07-23T04:28:56;5.90;;;5.20;;
59770;SDS011;45649;53.014;6.600;2022-07-23T04:31:21;6.20;;;5.67;;
59770;SDS011;45649;53.014;6.600;2022-07-23T04:33:49;5.30;;;4.90;;
59770;SDS011;45649;53.014;6.600;2022-07-23T04:36:15;5.53;;;5.03;;
59770;SDS011;45649;53.014;6.600;2022-07-23T04:38:40;5.40;;;5.00;;
59770;SDS011;45649;53.014;6.600;2022-07-23T04:41:07;5.63;;;5.17;;
59770;SDS011;45649;53.014;6.600;2022-07-23T04:43:32;6.67;;;5.03;;
59770;SDS011;45649;53.014;6.600;2022-07-23T04:45:58;5.17;;;4.73;;
59770;SDS011;45649;53.014;6.600;2022-07-23T04:48:24;5.37;;;4.87;;
59770;SDS011;45649;53.014;6.600;2022-07-23T04:50:50;5.00;;;4.50;;
59770;SDS011;45649;53.014;6.600;2022-07-23T04:53:15;6.00;;;4.90;;
59770;SDS011;45649;53.014;6.600;2022-07-23T04:55:43;5.57;;;5.07;;
59770;SDS011;45649;53.014;6.600;2022-07-23T04:58:09;5.17;;;4.77;;
59770;SDS011;45649;53.014;6.600;2022-07-23T05:00:34;7.17;;;4.43;;
59770;SDS011;45649;53.014;6.600;2022-07-23T05:03:01;5.20;;;4.70;;
59770;SDS011;45649;53.014;6.600;2022-07-23T05:05:27;5.27;;;4.67;;
59770;SDS011;45649;53.014;6.600;2022-07-23T05:07:52;4.60;;;4.30;;
59770;SDS011;45649;53.014;6.600;2022-07-23T05:10:18;4.60;;;4.10;;
59770;SDS011;45649;53.014;6.600;2022-07-23T05:12:44;6.53;;;4.13;;
59770;SDS011;45649;53.014;6.600;2022-07-23T05:15:10;5.77;;;4.10;;
59770;SDS011;45649;53.014;6.600;2022-07-23T05:17:36;4.60;;;4.20;;
59770;SDS011;45649;53.014;6.600;2022-07-23T05:20:02;4.37;;;3.97;;
59770;SDS011;45649;53.014;6.600;2022-07-23T05:22:28;4.80;;;4.40;;
59770;SDS011;45649;53.014;6.600;2022-07-23T05:24:56;4.00;;;3.70;;
59770;SDS011;45649;53.014;6.600;2022-07-23T05:27:21;3.90;;;3.60;;
59770;SDS011;45649;53.014;6.600;2022-07-23T05:29:47;5.67;;;4.07;;
59770;SDS011;45649;53.014;6.600;2022-07-23T05:32:13;4.53;;;3.93;;
59770;SDS011;45649;53.014;6.600;2022-07-23T05:34:39;4.23;;;3.70;;
59770;SDS011;45649;53.014;6.600;2022-07-23T05:37:05;4.30;;;3.90;;
59770;SDS011;45649;53.014;6.600;2022-07-23T05:39:31;4.07;;;3.73;;
59770;SDS011;45649;53.014;6.600;2022-07-23T05:41:58;6.17;;;4.10;;
59770;SDS011;45649;53.014;6.600;2022-07-23T05:44:24;4.40;;;4.00;;
59770;SDS011;45649;53.014;6.600;2022-07-23T05:46:52;4.10;;;3.70;;
59770;SDS011;45649;53.014;6.600;2022-07-23T05:49:18;4.10;;;3.80;;
59770;SDS011;45649;53.014;6.600;2022-07-23T05:51:44;4.17;;;3.83;;
59770;SDS011;45649;53.014;6.600;2022-07-23T05:54:10;4.60;;;3.87;;
59770;SDS011;45649;53.014;6.600;2022-07-23T05:56:36;4.37;;;3.97;;
59770;SDS011;45649;53.014;6.600;2022-07-23T05:59:01;3.80;;;3.40;;
59770;SDS011;45649;53.014;6.600;2022-07-23T06:01:28;3.43;;;3.20;;
59770;SDS011;45649;53.014;6.600;2022-07-23T06:03:54;4.00;;;3.50;;
59770;SDS011;45649;53.014;6.600;2022-07-23T06:06:20;3.67;;;3.33;;
59770;SDS011;45649;53.014;6.600;2022-07-23T06:08:46;4.00;;;3.00;;
59770;SDS011;45649;53.014;6.600;2022-07-23T06:11:12;3.50;;;3.20;;
59770;SDS011;45649;53.014;6.600;2022-07-23T06:13:38;3.63;;;3.00;;
59770;SDS011;45649;53.014;6.600;2022-07-23T06:16:03;3.67;;;3.15;;
59770;SDS011;45649;53.014;6.600;2022-07-23T06:18:30;3.93;;;3.07;;
59770;SDS011;45649;53.014;6.600;2022-07-23T06:20:56;2.97;;;2.50;;
59770;SDS011;45649;53.014;6.600;2022-07-23T06:23:22;3.43;;;2.80;;
59770;SDS011;45649;53.014;6.600;2022-07-23T06:25:47;2.53;;;2.30;;
59770;SDS011;45649;53.014;6.600;2022-07-23T06:28:13;2.30;;;2.10;;
59770;SDS011;45649;53.014;6.600;2022-07-23T06:30:40;3.60;;;2.20;;
59770;SDS011;45649;53.014;6.600;2022-07-23T06:33:06;2.73;;;1.90;;
59770;SDS011;45649;53.014;6.600;2022-07-23T06:35:32;2.73;;;2.20;;
59770;SDS011;45649;53.014;6.600;2022-07-23T06:37:59;3.47;;;1.67;;
59770;SDS011;45649;53.014;6.600;2022-07-23T06:40:25;2.50;;;1.73;;
59770;SDS011;45649;53.014;6.600;2022-07-23T06:42:51;4.00;;;1.60;;
59770;SDS011;45649;53.014;6.600;2022-07-23T06:45:17;3.07;;;1.63;;
59770;SDS011;45649;53.014;6.600;2022-07-23T06:47:43;3.13;;;1.33;;
59770;SDS011;45649;53.014;6.600;2022-07-23T06:50:09;1.40;;;1.30;;
59770;SDS011;45649;53.014;6.600;2022-07-23T06:52:35;2.33;;;1.37;;
59770;SDS011;45649;53.014;6.600;2022-07-23T06:55:01;2.23;;;1.40;;
59770;SDS011;45649;53.014;6.600;2022-07-23T06:57:27;5.37;;;1.67;;
59770;SDS011;45649;53.014;6.600;2022-07-23T06:59:53;2.30;;;1.80;;
59770;SDS011;45649;53.014;6.600;2022-07-23T07:02:20;1.40;;;1.30;;
59770;SDS011;45649;53.014;6.600;2022-07-23T07:04:45;3.20;;;1.43;;
59770;SDS011;45649;53.014;6.600;2022-07-23T07:07:11;2.73;;;1.50;;
59770;SDS011;45649;53.014;6.600;2022-07-23T07:09:37;1.40;;;1.30;;
59770;SDS011;45649;53.014;6.600;2022-07-23T07:12:03;3.87;;;1.83;;
59770;SDS011;45649;53.014;6.600;2022-07-23T07:14:29;7.90;;;2.15;;
59770;SDS011;45649;53.014;6.600;2022-07-23T07:16:56;1.57;;;1.47;;
59770;SDS011;45649;53.014;6.600;2022-07-23T07:19:21;2.00;;;1.90;;
59770;SDS011;45649;53.014;6.600;2022-07-23T07:21:47;2.60;;;1.90;;
59770;SDS011;45649;53.014;6.600;2022-07-23T07:24:14;1.63;;;1.50;;
59770;SDS011;45649;53.014;6.600;2022-07-23T07:26:39;3.17;;;1.70;;
59770;SDS011;45649;53.014;6.600;2022-07-23T07:29:05;1.57;;;1.33;;
59770;SDS011;45649;53.014;6.600;2022-07-23T07:31:32;1.13;;;1.03;;
59770;SDS011;45649;53.014;6.600;2022-07-23T07:33:58;1.33;;;1.23;;
59770;SDS011;45649;53.014;6.600;2022-07-23T07:36:23;1.43;;;0.80;;
59770;SDS011;45649;53.014;6.600;2022-07-23T07:38:49;1.10;;;1.00;;
59770;SDS011;45649;53.014;6.600;2022-07-23T07:41:15;3.93;;;1.10;;
59770;SDS011;45649;53.014;6.600;2022-07-23T07:43:41;1.40;;;1.20;;
59770;SDS011;45649;53.014;6.600;2022-07-23T07:46:08;1.33;;;0.90;;
59770;SDS011;45649;53.014;6.600;2022-07-23T07:48:35;0.83;;;0.83;;
59770;SDS011;45649;53.014;6.600;2022-07-23T07:51:03;1.07;;;0.97;;
59770;SDS011;45649;53.014;6.600;2022-07-23T07:53:29;1.60;;;1.17;;
59770;SDS011;45649;53.014;6.600;2022-07-23T07:55:55;1.67;;;0.90;;
59770;SDS011;45649;53.014;6.600;2022-07-23T07:58:20;1.53;;;0.80;;
59770;SDS011;45649;53.014;6.600;2022-07-23T08:00:46;0.87;;;0.87;;
59770;SDS011;45649;53.014;6.600;2022-07-23T08:03:12;0.90;;;0.90;;
59770;SDS011;45649;53.014;6.600;2022-07-23T08:05:37;1.07;;;0.93;;
59770;SDS011;45649;53.014;6.600;2022-07-23T08:08:04;0.90;;;0.90;;
59770;SDS011;45649;53.014;6.600;2022-07-23T08:10:30;0.80;;;0.80;;
59770;SDS011;45649;53.014;6.600;2022-07-23T08:12:56;0.70;;;0.70;;
59770;SDS011;45649;53.014;6.600;2022-07-23T08:15:23;0.70;;;0.70;;
59770;SDS011;45649;53.014;6.600;2022-07-23T08:17:51;1.57;;;0.90;;
59770;SDS011;45649;53.014;6.600;2022-07-23T08:20:18;1.40;;;0.73;;
59770;SDS011;45649;53.014;6.600;2022-07-23T08:22:49;0.77;;;0.77;;
59770;SDS011;45649;53.014;6.600;2022-07-23T08:25:27;0.70;;;0.70;;
59770;SDS011;45649;53.014;6.600;2022-07-23T08:27:56;1.53;;;0.97;;
59770;SDS011;45649;53.014;6.600;2022-07-23T08:30:23;0.97;;;0.90;;
59770;SDS011;45649;53.014;6.600;2022-07-23T08:32:56;2.00;;;0.70;;
59770;SDS011;45649;53.014;6.600;2022-07-23T08:35:23;0.73;;;0.73;;
59770;SDS011;45649;53.014;6.600;2022-07-23T08:37:51;1.60;;;0.80;;
59770;SDS011;45649;53.014;6.600;2022-07-23T08:40:18;0.60;;;0.60;;
59770;SDS011;45649;53.014;6.600;2022-07-23T08:42:45;1.03;;;0.80;;
59770;SDS011;45649;53.014;6.600;2022-07-23T08:45:13;2.57;;;0.83;;
59770;SDS011;45649;53.014;6.600;2022-07-23T08:47:43;2.77;;;0.90;;
59770;SDS011;45649;53.014;6.600;2022-07-23T08:50:08;1.30;;;0.70;;
59770;SDS011;45649;53.014;6.600;2022-07-23T08:52:36;0.73;;;0.73;;
59770;SDS011;45649;53.014;6.600;2022-07-23T08:55:03;0.63;;;0.63;;
59770;SDS011;45649;53.014;6.600;2022-07-23T08:57:29;2.85;;;0.70;;
59770;SDS011;45649;53.014;6.600;2022-07-23T08:59:55;0.60;;;0.60;;
59770;SDS011;45649;53.014;6.600;2022-07-23T09:02:22;0.67;;;0.67;;
59770;SDS011;45649;53.014;6.600;2022-07-23T09:04:48;0.93;;;0.80;;
59770;SDS011;45649;53.014;6.600;2022-07-23T09:07:14;0.93;;;0.80;;
59770;SDS011;45649;53.014;6.600;2022-07-23T09:09:40;1.03;;;0.70;;
59770;SDS011;45649;53.014;6.600;2022-07-23T09:12:12;1.17;;;0.70;;
59770;SDS011;45649;53.014;6.600;2022-07-23T09:14:42;2.33;;;0.80;;
59770;SDS011;45649;53.014;6.600;2022-07-23T09:17:12;2.23;;;0.73;;
59770;SDS011;45649;53.014;6.600;2022-07-23T09:19:41;1.67;;;0.60;;
59770;SDS011;45649;53.014;6.600;2022-07-23T09:27:46;0.80;;;0.80;;
59770;SDS011;45649;53.014;6.600;2022-07-23T09:30:24;0.60;;;0.60;;
59770;SDS011;45649;53.014;6.600;2022-07-23T09:33:05;1.03;;;0.80;;
59770;SDS011;45649;53.014;6.600;2022-07-23T09:38:17;1.30;;;0.80;;
59770;SDS011;45649;53.014;6.600;2022-07-23T09:40:45;1.73;;;0.90;;
59770;SDS011;45649;53.014;6.600;2022-07-23T09:43:12;0.90;;;0.67;;
59770;SDS011;45649;53.014;6.600;2022-07-23T09:45:51;0.90;;;0.90;;
59770;SDS011;45649;53.014;6.600;2022-07-23T09:48:17;0.80;;;0.80;;
59770;SDS011;45649;53.014;6.600;2022-07-23T09:50:43;2.77;;;0.80;;
59770;SDS011;45649;53.014;6.600;2022-07-23T09:53:09;0.93;;;0.80;;
59770;SDS011;45649;53.014;6.600;2022-07-23T09:55:51;0.73;;;0.70;;
59770;SDS011;45649;53.014;6.600;2022-07-23T09:58:22;1.57;;;0.80;;
59770;SDS011;45649;53.014;6.600;2022-07-23T10:00:48;1.10;;;0.90;;
59770;SDS011;45649;53.014;6.600;2022-07-23T10:03:15;1.53;;;0.80;;
59770;SDS011;45649;53.014;6.600;2022-07-23T10:05:43;0.77;;;0.70;;
59770;SDS011;45649;53.014;6.600;2022-07-23T10:08:11;1.90;;;0.77;;
59770;SDS011;45649;53.014;6.600;2022-07-23T10:10:38;0.80;;;0.77;;
59770;SDS011;45649;53.014;6.600;2022-07-23T10:13:05;1.03;;;0.70;;
59770;SDS011;45649;53.014;6.600;2022-07-23T10:15:57;1.00;;;0.90;;
59770;SDS011;45649;53.014;6.600;2022-07-23T10:18:23;0.70;;;0.70;;
59770;SDS011;45649;53.014;6.600;2022-07-23T10:20:50;1.30;;;0.90;;
59770;SDS011;45649;53.014;6.600;2022-07-23T10:26:19;2.23;;;0.90;;
59770;SDS011;45649;53.014;6.600;2022-07-23T10:34:24;1.53;;;0.90;;
59770;SDS011;45649;53.014;6.600;2022-07-23T10:42:42;2.17;;;1.10;;
59770;SDS011;45649;53.014;6.600;2022-07-23T10:47:48;1.95;;;0.90;;
59770;SDS011;45649;53.014;6.600;2022-07-23T10:50:25;1.13;;;0.90;;
59770;SDS011;45649;53.014;6.600;2022-07-23T10:57:59;2.00;;;1.00;;
59770;SDS011;45649;53.014;6.600;2022-07-23T11:00:27;1.17;;;1.07;;
59770;SDS011;45649;53.014;6.600;2022-07-23T11:02:55;1.13;;;1.10;;
59770;SDS011;45649;53.014;6.600;2022-07-23T11:05:26;2.60;;;1.30;;
59770;SDS011;45649;53.014;6.600;2022-07-23T11:10:52;1.40;;;1.10;;
59770;SDS011;45649;53.014;6.600;2022-07-23T11:13:30;1.83;;;1.20;;
59770;SDS011;45649;53.014;6.600;2022-07-23T11:26:41;3.50;;;1.10;;
59770;SDS011;45649;53.014;6.600;2022-07-23T11:32:00;0.93;;;0.90;;
59770;SDS011;45649;53.014;6.600;2022-07-23T11:34:31;3.10;;;1.20;;
59770;SDS011;45649;53.014;6.600;2022-07-23T11:37:02;1.73;;;1.00;;
59770;SDS011;45649;53.014;6.600;2022-07-23T11:39:29;1.53;;;1.13;;
59770;SDS011;45649;53.014;6.600;2022-07-23T11:41:56;1.70;;;1.17;;
59770;SDS011;45649;53.014;6.600;2022-07-23T11:44:31;1.17;;;1.13;;
59770;SDS011;45649;53.014;6.600;2022-07-23T11:46:59;1.70;;;1.23;;
59770;SDS011;45649;53.014;6.600;2022-07-23T11:49:28;2.37;;;1.30;;
59770;SDS011;45649;53.014;6.600;2022-07-23T11:52:11;1.37;;;1.20;;
59770;SDS011;45649;53.014;6.600;2022-07-23T11:54:51;1.20;;;1.13;;
59770;SDS011;45649;53.014;6.600;2022-07-23T11:57:17;1.50;;;1.40;;
59770;SDS011;45649;53.014;6.600;2022-07-23T11:59:45;1.30;;;1.20;;
59770;SDS011;45649;53.014;6.600;2022-07-23T12:02:14;1.53;;;1.27;;
59770;SDS011;45649;53.014;6.600;2022-07-23T12:07:31;1.50;;;1.40;;
59770;SDS011;45649;53.014;6.600;2022-07-23T12:10:04;1.37;;;1.30;;
59770;SDS011;45649;53.014;6.600;2022-07-23T12:12:37;1.77;;;1.43;;
59770;SDS011;45649;53.014;6.600;2022-07-23T12:15:07;1.67;;;1.00;;
59770;SDS011;45649;53.014;6.600;2022-07-23T12:17:37;1.53;;;1.43;;
59770;SDS011;45649;53.014;6.600;2022-07-23T12:20:06;1.40;;;1.30;;
59770;SDS011;45649;53.014;6.600;2022-07-23T12:22:38;1.93;;;1.57;;
59770;SDS011;45649;53.014;6.600;2022-07-23T12:25:07;1.60;;;1.47;;
59770;SDS011;45649;53.014;6.600;2022-07-23T12:27:35;1.70;;;1.60;;
59770;SDS011;45649;53.014;6.600;2022-07-23T12:30:18;1.53;;;1.20;;
59770;SDS011;45649;53.014;6.600;2022-07-23T12:32:49;1.57;;;1.47;;
59770;SDS011;45649;53.014;6.600;2022-07-23T12:35:16;2.60;;;1.60;;
59770;SDS011;45649;53.014;6.600;2022-07-23T12:37:43;1.20;;;1.20;;
59770;SDS011;45649;53.014;6.600;2022-07-23T12:40:19;1.37;;;1.27;;
59770;SDS011;45649;53.014;6.600;2022-07-23T12:43:06;2.50;;;1.37;;
59770;SDS011;45649;53.014;6.600;2022-07-23T12:45:42;2.17;;;1.37;;
59770;SDS011;45649;53.014;6.600;2022-07-23T12:48:15;3.10;;;1.70;;
59770;SDS011;45649;53.014;6.600;2022-07-23T12:53:24;1.50;;;1.20;;
59770;SDS011;45649;53.014;6.600;2022-07-23T12:56:04;2.00;;;1.40;;
59770;SDS011;45649;53.014;6.600;2022-07-23T12:58:48;2.83;;;1.50;;
59770;SDS011;45649;53.014;6.600;2022-07-23T13:04:00;2.40;;;1.40;;
59770;SDS011;45649;53.014;6.600;2022-07-23T13:06:35;1.57;;;1.30;;
59770;SDS011;45649;53.014;6.600;2022-07-23T13:09:03;1.73;;;1.23;;
59770;SDS011;45649;53.014;6.600;2022-07-23T13:11:30;2.37;;;1.33;;
59770;SDS011;45649;53.014;6.600;2022-07-23T13:13:56;2.57;;;1.50;;
59770;SDS011;45649;53.014;6.600;2022-07-23T13:16:22;1.40;;;1.30;;
59770;SDS011;45649;53.014;6.600;2022-07-23T13:18:48;1.53;;;1.40;;
59770;SDS011;45649;53.014;6.600;2022-07-23T13:21:14;1.23;;;1.13;;
59770;SDS011;45649;53.014;6.600;2022-07-23T13:23:42;2.90;;;1.50;;
59770;SDS011;45649;53.014;6.600;2022-07-23T13:26:08;1.57;;;1.47;;
59770;SDS011;45649;53.014;6.600;2022-07-23T13:28:34;2.17;;;1.50;;
59770;SDS011;45649;53.014;6.600;2022-07-23T13:31:00;1.50;;;1.40;;
59770;SDS011;45649;53.014;6.600;2022-07-23T13:33:26;2.83;;;1.40;;
59770;SDS011;45649;53.014;6.600;2022-07-23T13:35:52;1.60;;;1.50;;
59770;SDS011;45649;53.014;6.600;2022-07-23T13:38:18;1.50;;;1.40;;
59770;SDS011;45649;53.014;6.600;2022-07-23T13:40:46;1.73;;;1.63;;
59770;SDS011;45649;53.014;6.600;2022-07-23T13:43:15;1.40;;;1.30;;
59770;SDS011;45649;53.014;6.600;2022-07-23T13:45:42;2.37;;;1.50;;
59770;SDS011;45649;53.014;6.600;2022-07-23T13:48:09;2.10;;;1.30;;
59770;SDS011;45649;53.014;6.600;2022-07-23T13:50:36;1.90;;;1.73;;
59770;SDS011;45649;53.014;6.600;2022-07-23T13:53:03;1.60;;;1.50;;
59770;SDS011;45649;53.014;6.600;2022-07-23T13:55:30;1.87;;;1.60;;
59770;SDS011;45649;53.014;6.600;2022-07-23T13:57:56;2.07;;;1.63;;
59770;SDS011;45649;53.014;6.600;2022-07-23T14:00:22;1.50;;;1.40;;
59770;SDS011;45649;53.014;6.600;2022-07-23T14:02:49;1.93;;;1.23;;
59770;SDS011;45649;53.014;6.600;2022-07-23T14:05:15;1.47;;;1.37;;
59770;SDS011;45649;53.014;6.600;2022-07-23T14:07:40;1.40;;;1.30;;
59770;SDS011;45649;53.014;6.600;2022-07-23T14:10:08;2.23;;;1.60;;
59770;SDS011;45649;53.014;6.600;2022-07-23T14:12:34;1.73;;;1.20;;
59770;SDS011;45649;53.014;6.600;2022-07-23T14:15:00;2.03;;;1.30;;
59770;SDS011;45649;53.014;6.600;2022-07-23T14:17:26;1.50;;;1.40;;
59770;SDS011;45649;53.014;6.600;2022-07-23T14:19:52;1.83;;;1.30;;
59770;SDS011;45649;53.014;6.600;2022-07-23T14:22:18;1.23;;;1.13;;
59770;SDS011;45649;53.014;6.600;2022-07-23T14:24:45;2.77;;;1.33;;
59770;SDS011;45649;53.014;6.600;2022-07-23T14:27:11;3.90;;;1.30;;
59770;SDS011;45649;53.014;6.600;2022-07-23T14:29:37;2.40;;;1.30;;
59770;SDS011;45649;53.014;6.600;2022-07-23T14:32:04;1.40;;;1.30;;
59770;SDS011;45649;53.014;6.600;2022-07-23T14:34:30;1.73;;;1.40;;
59770;SDS011;45649;53.014;6.600;2022-07-23T14:36:56;1.40;;;1.30;;
59770;SDS011;45649;53.014;6.600;2022-07-23T14:39:22;1.67;;;1.30;;
59770;SDS011;45649;53.014;6.600;2022-07-23T14:41:48;1.40;;;1.30;;
59770;SDS011;45649;53.014;6.600;2022-07-23T14:44:14;1.67;;;1.20;;
59770;SDS011;45649;53.014;6.600;2022-07-23T14:46:40;1.80;;;1.30;;
59770;SDS011;45649;53.014;6.600;2022-07-23T14:49:05;1.83;;;1.50;;
59770;SDS011;45649;53.014;6.600;2022-07-23T14:51:32;1.83;;;1.40;;
59770;SDS011;45649;53.014;6.600;2022-07-23T14:53:59;1.33;;;1.20;;
59770;SDS011;45649;53.014;6.600;2022-07-23T14:56:25;2.50;;;1.50;;
59770;SDS011;45649;53.014;6.600;2022-07-23T14:58:51;1.43;;;1.20;;
59770;SDS011;45649;53.014;6.600;2022-07-23T15:01:18;1.10;;;1.10;;
59770;SDS011;45649;53.014;6.600;2022-07-23T15:03:44;2.30;;;1.50;;
59770;SDS011;45649;53.014;6.600;2022-07-23T15:06:10;1.37;;;1.27;;
59770;SDS011;45649;53.014;6.600;2022-07-23T15:08:36;1.90;;;1.80;;
59770;SDS011;45649;53.014;6.600;2022-07-23T15:11:02;2.43;;;1.47;;
59770;SDS011;45649;53.014;6.600;2022-07-23T15:13:28;3.93;;;1.53;;
59770;SDS011;45649;53.014;6.600;2022-07-23T15:15:54;2.40;;;1.30;;
59770;SDS011;45649;53.014;6.600;2022-07-23T15:18:20;1.73;;;1.40;;
59770;SDS011;45649;53.014;6.600;2022-07-23T15:20:46;1.40;;;1.30;;
59770;SDS011;45649;53.014;6.600;2022-07-23T15:23:11;1.50;;;1.40;;
59770;SDS011;45649;53.014;6.600;2022-07-23T15:25:38;2.20;;;2.10;;
59770;SDS011;45649;53.014;6.600;2022-07-23T15:28:04;1.50;;;1.40;;
59770;SDS011;45649;53.014;6.600;2022-07-23T15:30:30;1.60;;;1.50;;
59770;SDS011;45649;53.014;6.600;2022-07-23T15:32:56;2.20;;;1.80;;
59770;SDS011;45649;53.014;6.600;2022-07-23T15:35:23;2.17;;;2.07;;
59770;SDS011;45649;53.014;6.600;2022-07-23T15:37:49;1.50;;;1.40;;
59770;SDS011;45649;53.014;6.600;2022-07-23T15:40:14;2.07;;;1.30;;
59770;SDS011;45649;53.014;6.600;2022-07-23T15:42:41;1.40;;;1.10;;
59770;SDS011;45649;53.014;6.600;2022-07-23T15:45:07;2.23;;;1.33;;